sensor_id;sensor_type;location;lat;lon;timestamp;pressure;altitude;pressure_sealevel;temperature;humidity
54329;BME280;40710;51.120;13.136;2023-03-15T00:00:22;98692.78;;;6.52;54.53
54329;BME280;40710;51.120;13.136;2023-03-15T00:02:47;98710.72;;;6.59;54.66
54329;BME280;40710;51.120;13.136;2023-03-15T00:05:12;98692.31;;;6.97;52.74
54329;BME280;40710;51.120;13.136;2023-03-15T00:07:36;98704.75;;;6.92;52.84
54329;BME280;40710;51.120;13.136;2023-03-15T00:10:01;98715.59;;;6.85;53.44
54329;BME280;40710;51.120;13.136;2023-03-15T00:12:25;98716.22;;;6.53;53.93
54329;BME280;40710;51.120;13.136;2023-03-15T00:14:50;98719.16;;;6.65;53.92
54329;BME280;40710;51.120;13.136;2023-03-15T00:17:15;98720.72;;;6.50;53.63
54329;BME280;40710;51.120;13.136;2023-03-15T00:19:39;98736.59;;;5.86;55.35
54329;BME280;40710;51.120;13.136;2023-03-15T00:22:04;98741.81;;;6.07;55.33
54329;BME280;40710;51.120;13.136;2023-03-15T00:24:29;98743.56;;;6.25;54.74
54329;BME280;40710;51.120;13.136;2023-03-15T00:26:53;98744.00;;;6.73;53.68
54329;BME280;40710;51.120;13.136;2023-03-15T00:29:19;98741.34;;;6.92;53.55
54329;BME280;40710;51.120;13.136;2023-03-15T00:31:43;98754.22;;;6.59;54.48
54329;BME280;40710;51.120;13.136;2023-03-15T00:34:08;98748.00;;;6.80;53.51
54329;BME280;40710;51.120;13.136;2023-03-15T00:36:32;98752.19;;;6.66;53.95
54329;BME280;40710;51.120;13.136;2023-03-15T00:38:57;98749.63;;;6.83;53.52
54329;BME280;40710;51.120;13.136;2023-03-15T00:41:22;98746.28;;;6.98;54.03
54329;BME280;40710;51.120;13.136;2023-03-15T00:43:47;98748.47;;;6.89;53.65
54329;BME280;40710;51.120;13.136;2023-03-15T00:46:13;98743.84;;;7.30;52.80
54329;BME280;40710;51.120;13.136;2023-03-15T00:48:38;98749.38;;;7.07;53.27
54329;BME280;40710;51.120;13.136;2023-03-15T00:51:12;98753.91;;;7.38;52.71
54329;BME280;40710;51.120;13.136;2023-03-15T00:53:39;98760.72;;;7.06;53.59
54329;BME280;40710;51.120;13.136;2023-03-15T00:56:13;98768.50;;;7.07;53.87
54329;BME280;40710;51.120;13.136;2023-03-15T00:58:39;98770.56;;;6.81;54.56
54329;BME280;40710;51.120;13.136;2023-03-15T01:01:16;98771.28;;;6.66;54.87
54329;BME280;40710;51.120;13.136;2023-03-15T01:03:41;98767.56;;;6.72;54.95
54329;BME280;40710;51.120;13.136;2023-03-15T01:06:09;98766.59;;;7.28;53.93
54329;BME280;40710;51.120;13.136;2023-03-15T01:08:33;98761.59;;;6.87;54.22
54329;BME280;40710;51.120;13.136;2023-03-15T01:11:03;98767.13;;;6.62;54.84
54329;BME280;40710;51.120;13.136;2023-03-15T01:13:28;98772.88;;;6.51;55.45
54329;BME280;40710;51.120;13.136;2023-03-15T01:15:53;98767.50;;;6.73;54.99
54329;BME280;40710;51.120;13.136;2023-03-15T01:18:17;98767.00;;;6.84;54.91
54329;BME280;40710;51.120;13.136;2023-03-15T01:20:42;98770.09;;;6.16;55.51
54329;BME280;40710;51.120;13.136;2023-03-15T01:23:08;98769.13;;;6.57;55.80
54329;BME280;40710;51.120;13.136;2023-03-15T01:25:33;98781.69;;;6.49;55.31
54329;BME280;40710;51.120;13.136;2023-03-15T01:27:57;98774.47;;;6.73;55.65
54329;BME280;40710;51.120;13.136;2023-03-15T01:30:22;98777.31;;;6.49;56.19
54329;BME280;40710;51.120;13.136;2023-03-15T01:32:46;98765.41;;;6.99;54.73
54329;BME280;40710;51.120;13.136;2023-03-15T01:35:11;98781.41;;;6.74;55.27
54329;BME280;40710;51.120;13.136;2023-03-15T01:37:35;98773.06;;;6.66;55.45
54329;BME280;40710;51.120;13.136;2023-03-15T01:40:00;98777.66;;;6.41;55.72
54329;BME280;40710;51.120;13.136;2023-03-15T01:42:24;98779.13;;;6.66;55.10
54329;BME280;40710;51.120;13.136;2023-03-15T01:44:50;98775.41;;;6.34;55.33
54329;BME280;40710;51.120;13.136;2023-03-15T01:47:15;98782.75;;;6.63;55.30
54329;BME280;40710;51.120;13.136;2023-03-15T01:49:42;98783.72;;;6.42;55.36
54329;BME280;40710;51.120;13.136;2023-03-15T01:52:12;98782.97;;;6.95;54.14
54329;BME280;40710;51.120;13.136;2023-03-15T01:54:43;98788.28;;;6.94;54.44
54329;BME280;40710;51.120;13.136;2023-03-15T01:57:26;98780.88;;;6.85;54.92
54329;BME280;40710;51.120;13.136;2023-03-15T02:00:17;98774.44;;;6.92;53.97
54329;BME280;40710;51.120;13.136;2023-03-15T02:02:50;98782.72;;;6.82;54.73
54329;BME280;40710;51.120;13.136;2023-03-15T02:05:20;98800.34;;;6.39;55.58
54329;BME280;40710;51.120;13.136;2023-03-15T02:07:48;98803.03;;;6.38;55.31
54329;BME280;40710;51.120;13.136;2023-03-15T02:10:16;98798.75;;;6.75;54.95
54329;BME280;40710;51.120;13.136;2023-03-15T02:12:46;98802.22;;;5.98;56.39
54329;BME280;40710;51.120;13.136;2023-03-15T02:15:14;98798.91;;;5.72;56.73
54329;BME280;40710;51.120;13.136;2023-03-15T02:17:41;98804.47;;;5.22;57.48
54329;BME280;40710;51.120;13.136;2023-03-15T02:20:29;98806.03;;;5.68;56.43
54329;BME280;40710;51.120;13.136;2023-03-15T02:23:01;98804.72;;;5.99;56.04
54329;BME280;40710;51.120;13.136;2023-03-15T02:25:44;98799.06;;;6.29;54.83
54329;BME280;40710;51.120;13.136;2023-03-15T02:28:15;98806.63;;;5.75;56.13
54329;BME280;40710;51.120;13.136;2023-03-15T02:30:42;98809.06;;;6.40;54.87
54329;BME280;40710;51.120;13.136;2023-03-15T02:33:23;98817.41;;;6.09;55.46
54329;BME280;40710;51.120;13.136;2023-03-15T02:35:48;98808.31;;;6.36;54.91
54329;BME280;40710;51.120;13.136;2023-03-15T02:38:14;98817.47;;;5.64;56.73
54329;BME280;40710;51.120;13.136;2023-03-15T02:40:39;98817.72;;;6.01;56.10
54329;BME280;40710;51.120;13.136;2023-03-15T02:43:07;98822.31;;;5.31;56.61
54329;BME280;40710;51.120;13.136;2023-03-15T02:45:37;98826.16;;;5.65;56.08
54329;BME280;40710;51.120;13.136;2023-03-15T02:48:04;98826.75;;;5.92;56.20
54329;BME280;40710;51.120;13.136;2023-03-15T02:50:30;98827.91;;;6.07;55.93
54329;BME280;40710;51.120;13.136;2023-03-15T02:52:55;98828.38;;;5.95;55.48
54329;BME280;40710;51.120;13.136;2023-03-15T02:55:19;98829.84;;;6.02;55.54
54329;BME280;40710;51.120;13.136;2023-03-15T02:57:45;98831.69;;;5.78;56.42
54329;BME280;40710;51.120;13.136;2023-03-15T03:00:11;98839.47;;;5.79;57.05
54329;BME280;40710;51.120;13.136;2023-03-15T03:02:37;98838.72;;;5.98;55.42
54329;BME280;40710;51.120;13.136;2023-03-15T03:05:02;98854.13;;;5.82;56.94
54329;BME280;40710;51.120;13.136;2023-03-15T03:07:26;98856.72;;;5.61;56.58
54329;BME280;40710;51.120;13.136;2023-03-15T03:09:51;98852.88;;;5.91;55.70
54329;BME280;40710;51.120;13.136;2023-03-15T03:12:15;98847.28;;;6.01;55.65
54329;BME280;40710;51.120;13.136;2023-03-15T03:14:40;98864.53;;;6.04;55.36
54329;BME280;40710;51.120;13.136;2023-03-15T03:17:06;98878.56;;;5.37;56.54
54329;BME280;40710;51.120;13.136;2023-03-15T03:19:31;98883.06;;;5.33;56.92
54329;BME280;40710;51.120;13.136;2023-03-15T03:21:55;98889.84;;;4.91;57.36
54329;BME280;40710;51.120;13.136;2023-03-15T03:24:21;98889.22;;;4.85;57.90
54329;BME280;40710;51.120;13.136;2023-03-15T03:26:45;98887.13;;;5.61;56.04
54329;BME280;40710;51.120;13.136;2023-03-15T03:29:10;98896.06;;;5.11;56.32
54329;BME280;40710;51.120;13.136;2023-03-15T03:31:35;98895.22;;;4.87;57.50
54329;BME280;40710;51.120;13.136;2023-03-15T03:33:59;98901.94;;;5.60;55.99
54329;BME280;40710;51.120;13.136;2023-03-15T03:36:24;98898.53;;;5.58;55.98
54329;BME280;40710;51.120;13.136;2023-03-15T03:38:49;98895.50;;;5.69;55.73
54329;BME280;40710;51.120;13.136;2023-03-15T03:41:14;98898.09;;;5.03;56.76
54329;BME280;40710;51.120;13.136;2023-03-15T03:43:39;98903.72;;;4.92;57.26
54329;BME280;40710;51.120;13.136;2023-03-15T03:46:04;98908.41;;;5.06;56.82
54329;BME280;40710;51.120;13.136;2023-03-15T03:48:29;98906.09;;;4.98;56.60
54329;BME280;40710;51.120;13.136;2023-03-15T03:50:54;98909.69;;;4.94;56.12
54329;BME280;40710;51.120;13.136;2023-03-15T03:53:18;98920.72;;;4.79;57.02
54329;BME280;40710;51.120;13.136;2023-03-15T03:55:43;98926.91;;;4.74;57.27
54329;BME280;40710;51.120;13.136;2023-03-15T03:58:09;98929.41;;;4.78;56.48
54329;BME280;40710;51.120;13.136;2023-03-15T04:00:34;98920.91;;;5.20;55.93
54329;BME280;40710;51.120;13.136;2023-03-15T04:02:59;98930.63;;;5.15;56.49
54329;BME280;40710;51.120;13.136;2023-03-15T04:05:25;98932.00;;;5.01;56.62
54329;BME280;40710;51.120;13.136;2023-03-15T04:07:50;98937.56;;;4.92;56.39
54329;BME280;40710;51.120;13.136;2023-03-15T04:10:15;98940.84;;;5.21;56.31
54329;BME280;40710;51.120;13.136;2023-03-15T04:12:43;98936.38;;;5.46;55.68
54329;BME280;40710;51.120;13.136;2023-03-15T04:15:08;98946.53;;;5.30;56.28
54329;BME280;40710;51.120;13.136;2023-03-15T04:17:34;98947.25;;;5.34;55.99
54329;BME280;40710;51.120;13.136;2023-03-15T04:19:59;98948.81;;;5.62;55.25
54329;BME280;40710;51.120;13.136;2023-03-15T04:22:29;98959.88;;;5.45;55.68
54329;BME280;40710;51.120;13.136;2023-03-15T04:24:53;98966.28;;;5.14;55.99
54329;BME280;40710;51.120;13.136;2023-03-15T04:27:18;98964.72;;;5.32;56.32
54329;BME280;40710;51.120;13.136;2023-03-15T04:29:42;98962.41;;;5.01;56.28
54329;BME280;40710;51.120;13.136;2023-03-15T04:32:07;98971.13;;;5.47;56.86
54329;BME280;40710;51.120;13.136;2023-03-15T04:34:31;98980.06;;;5.16;57.35
54329;BME280;40710;51.120;13.136;2023-03-15T04:36:56;98980.53;;;5.04;57.38
54329;BME280;40710;51.120;13.136;2023-03-15T04:39:21;98979.25;;;5.61;56.34
54329;BME280;40710;51.120;13.136;2023-03-15T04:41:46;98984.72;;;5.54;55.36
54329;BME280;40710;51.120;13.136;2023-03-15T04:44:10;98992.72;;;4.78;56.51
54329;BME280;40710;51.120;13.136;2023-03-15T04:46:35;98984.16;;;5.00;56.27
54329;BME280;40710;51.120;13.136;2023-03-15T04:48:59;98998.03;;;4.50;57.78
54329;BME280;40710;51.120;13.136;2023-03-15T04:51:25;98987.31;;;5.32;55.31
54329;BME280;40710;51.120;13.136;2023-03-15T04:53:50;98999.59;;;4.81;56.51
54329;BME280;40710;51.120;13.136;2023-03-15T04:56:14;98993.94;;;5.17;55.76
54329;BME280;40710;51.120;13.136;2023-03-15T04:58:39;99012.88;;;4.48;57.59
54329;BME280;40710;51.120;13.136;2023-03-15T05:01:06;99000.72;;;4.97;55.84
54329;BME280;40710;51.120;13.136;2023-03-15T05:03:31;99002.72;;;5.14;54.98
54329;BME280;40710;51.120;13.136;2023-03-15T05:05:55;99006.75;;;5.23;55.76
54329;BME280;40710;51.120;13.136;2023-03-15T05:08:20;99006.47;;;5.07;55.09
54329;BME280;40710;51.120;13.136;2023-03-15T05:10:44;99011.75;;;4.80;55.74
54329;BME280;40710;51.120;13.136;2023-03-15T05:13:09;99013.34;;;4.84;56.64
54329;BME280;40710;51.120;13.136;2023-03-15T05:15:33;99024.84;;;4.52;56.41
54329;BME280;40710;51.120;13.136;2023-03-15T05:17:58;99027.56;;;4.99;56.29
54329;BME280;40710;51.120;13.136;2023-03-15T05:20:23;99031.22;;;4.43;56.02
54329;BME280;40710;51.120;13.136;2023-03-15T05:22:48;99032.22;;;5.15;55.74
54329;BME280;40710;51.120;13.136;2023-03-15T05:25:13;99029.53;;;4.92;55.10
54329;BME280;40710;51.120;13.136;2023-03-15T05:27:38;99031.03;;;5.00;55.47
54329;BME280;40710;51.120;13.136;2023-03-15T05:30:04;99044.84;;;4.77;56.22
54329;BME280;40710;51.120;13.136;2023-03-15T05:32:30;99038.56;;;5.31;54.56
54329;BME280;40710;51.120;13.136;2023-03-15T05:34:57;99057.91;;;4.75;57.11
54329;BME280;40710;51.120;13.136;2023-03-15T05:37:22;99051.16;;;5.20;55.91
54329;BME280;40710;51.120;13.136;2023-03-15T05:39:47;99055.13;;;5.05;56.13
54329;BME280;40710;51.120;13.136;2023-03-15T05:42:11;99057.63;;;5.33;55.29
54329;BME280;40710;51.120;13.136;2023-03-15T05:44:36;99058.00;;;5.46;54.55
54329;BME280;40710;51.120;13.136;2023-03-15T05:47:01;99056.41;;;5.18;54.71
54329;BME280;40710;51.120;13.136;2023-03-15T05:49:25;99064.19;;;4.95;55.98
54329;BME280;40710;51.120;13.136;2023-03-15T05:51:50;99076.47;;;4.91;55.53
54329;BME280;40710;51.120;13.136;2023-03-15T05:54:14;99071.41;;;5.11;54.56
54329;BME280;40710;51.120;13.136;2023-03-15T05:56:39;99084.16;;;5.19;55.04
54329;BME280;40710;51.120;13.136;2023-03-15T05:59:03;99087.59;;;4.69;56.53
54329;BME280;40710;51.120;13.136;2023-03-15T06:01:28;99083.63;;;5.09;55.42
54329;BME280;40710;51.120;13.136;2023-03-15T06:03:53;99083.97;;;5.00;55.44
54329;BME280;40710;51.120;13.136;2023-03-15T06:06:17;99090.44;;;4.63;56.69
54329;BME280;40710;51.120;13.136;2023-03-15T06:08:42;99106.47;;;4.23;57.85
54329;BME280;40710;51.120;13.136;2023-03-15T06:11:06;99108.09;;;3.98;58.59
54329;BME280;40710;51.120;13.136;2023-03-15T06:13:31;99099.25;;;4.31;57.83
54329;BME280;40710;51.120;13.136;2023-03-15T06:15:55;99087.59;;;4.69;57.22
54329;BME280;40710;51.120;13.136;2023-03-15T06:18:20;99109.09;;;4.49;57.31
54329;BME280;40710;51.120;13.136;2023-03-15T06:20:44;99112.56;;;4.75;56.51
54329;BME280;40710;51.120;13.136;2023-03-15T06:23:09;99122.38;;;4.12;57.88
54329;BME280;40710;51.120;13.136;2023-03-15T06:25:34;99119.91;;;4.89;56.54
54329;BME280;40710;51.120;13.136;2023-03-15T06:27:58;99122.81;;;5.06;57.15
54329;BME280;40710;51.120;13.136;2023-03-15T06:30:23;99125.13;;;4.89;57.20
54329;BME280;40710;51.120;13.136;2023-03-15T06:32:49;99132.44;;;5.04;57.04
54329;BME280;40710;51.120;13.136;2023-03-15T06:35:13;99136.41;;;4.63;57.41
54329;BME280;40710;51.120;13.136;2023-03-15T06:37:38;99139.00;;;4.63;57.59
54329;BME280;40710;51.120;13.136;2023-03-15T06:40:05;99146.59;;;4.70;56.87
54329;BME280;40710;51.120;13.136;2023-03-15T06:42:33;99129.25;;;4.96;57.02
54329;BME280;40710;51.120;13.136;2023-03-15T06:44:58;99128.38;;;5.46;55.96
54329;BME280;40710;51.120;13.136;2023-03-15T06:47:22;99130.59;;;5.80;55.05
54329;BME280;40710;51.120;13.136;2023-03-15T06:49:47;99133.66;;;5.68;54.68
54329;BME280;40710;51.120;13.136;2023-03-15T06:52:13;99133.97;;;5.10;55.97
54329;BME280;40710;51.120;13.136;2023-03-15T06:54:38;99124.78;;;5.48;55.47
54329;BME280;40710;51.120;13.136;2023-03-15T06:57:02;99124.25;;;5.87;54.06
54329;BME280;40710;51.120;13.136;2023-03-15T06:59:27;99121.53;;;5.67;56.08
54329;BME280;40710;51.120;13.136;2023-03-15T07:01:51;99140.22;;;5.55;54.83
54329;BME280;40710;51.120;13.136;2023-03-15T07:04:16;99137.69;;;5.03;55.53
54329;BME280;40710;51.120;13.136;2023-03-15T07:06:40;99140.91;;;5.35;54.67
54329;BME280;40710;51.120;13.136;2023-03-15T07:09:05;99134.69;;;6.11;52.34
54329;BME280;40710;51.120;13.136;2023-03-15T07:11:30;99146.38;;;6.45;53.43
54329;BME280;40710;51.120;13.136;2023-03-15T07:13:55;99141.78;;;5.84;53.70
54329;BME280;40710;51.120;13.136;2023-03-15T07:16:19;99138.84;;;6.81;51.58
54329;BME280;40710;51.120;13.136;2023-03-15T07:18:44;99158.91;;;6.37;52.83
54329;BME280;40710;51.120;13.136;2023-03-15T07:21:08;99171.50;;;5.78;54.08
54329;BME280;40710;51.120;13.136;2023-03-15T07:23:33;99161.41;;;6.40;52.95
54329;BME280;40710;51.120;13.136;2023-03-15T07:25:58;99166.91;;;6.76;52.60
54329;BME280;40710;51.120;13.136;2023-03-15T07:28:24;99167.53;;;6.61;52.61
54329;BME280;40710;51.120;13.136;2023-03-15T07:31:00;99168.75;;;6.52;53.19
54329;BME280;40710;51.120;13.136;2023-03-15T07:33:27;99162.81;;;6.49;52.57
54329;BME280;40710;51.120;13.136;2023-03-15T07:35:52;99172.38;;;6.48;53.40
54329;BME280;40710;51.120;13.136;2023-03-15T07:38:18;99161.66;;;6.98;51.38
54329;BME280;40710;51.120;13.136;2023-03-15T07:40:42;99175.31;;;5.93;53.25
54329;BME280;40710;51.120;13.136;2023-03-15T07:43:07;99176.28;;;6.60;52.49
54329;BME280;40710;51.120;13.136;2023-03-15T07:45:31;99177.50;;;6.94;51.69
54329;BME280;40710;51.120;13.136;2023-03-15T07:47:57;99186.59;;;6.19;52.94
54329;BME280;40710;51.120;13.136;2023-03-15T07:50:21;99186.09;;;6.53;54.05
54329;BME280;40710;51.120;13.136;2023-03-15T07:52:46;99206.09;;;5.60;54.90
54329;BME280;40710;51.120;13.136;2023-03-15T07:55:11;99214.50;;;5.68;56.20
54329;BME280;40710;51.120;13.136;2023-03-15T07:57:35;99222.19;;;5.71;57.41
54329;BME280;40710;51.120;13.136;2023-03-15T08:00:00;99215.72;;;6.30;56.26
54329;BME280;40710;51.120;13.136;2023-03-15T08:02:24;99238.72;;;4.93;59.99
54329;BME280;40710;51.120;13.136;2023-03-15T08:04:49;99243.00;;;5.47;60.10
54329;BME280;40710;51.120;13.136;2023-03-15T08:07:14;99250.53;;;5.03;61.14
54329;BME280;40710;51.120;13.136;2023-03-15T08:09:39;99260.09;;;4.46;65.31
54329;BME280;40710;51.120;13.136;2023-03-15T08:12:03;99256.94;;;4.37;66.81
54329;BME280;40710;51.120;13.136;2023-03-15T08:14:28;99254.81;;;5.31;65.10
54329;BME280;40710;51.120;13.136;2023-03-15T08:16:54;99255.41;;;4.87;65.72
54329;BME280;40710;51.120;13.136;2023-03-15T08:19:19;99250.63;;;5.00;64.51
54329;BME280;40710;51.120;13.136;2023-03-15T08:21:45;99255.75;;;4.75;64.20
54329;BME280;40710;51.120;13.136;2023-03-15T08:24:11;99261.41;;;5.68;63.64
54329;BME280;40710;51.120;13.136;2023-03-15T08:26:36;99253.53;;;5.44;63.19
54329;BME280;40710;51.120;13.136;2023-03-15T08:29:00;99245.50;;;5.76;61.51
54329;BME280;40710;51.120;13.136;2023-03-15T08:31:25;99251.13;;;5.88;61.84
54329;BME280;40710;51.120;13.136;2023-03-15T08:33:50;99251.00;;;5.41;62.71
54329;BME280;40710;51.120;13.136;2023-03-15T08:36:14;99250.88;;;5.46;61.97
54329;BME280;40710;51.120;13.136;2023-03-15T08:38:39;99247.72;;;5.36;61.85
54329;BME280;40710;51.120;13.136;2023-03-15T08:41:05;99242.34;;;6.40;60.05
54329;BME280;40710;51.120;13.136;2023-03-15T08:43:29;99238.63;;;6.46;58.80
54329;BME280;40710;51.120;13.136;2023-03-15T08:45:54;99247.44;;;5.94;60.55
54329;BME280;40710;51.120;13.136;2023-03-15T08:48:18;99257.69;;;5.75;61.97
54329;BME280;40710;51.120;13.136;2023-03-15T08:50:43;99246.53;;;6.66;59.09
54329;BME280;40710;51.120;13.136;2023-03-15T08:53:08;99243.22;;;6.15;58.53
54329;BME280;40710;51.120;13.136;2023-03-15T08:55:32;99247.22;;;5.77;59.03
54329;BME280;40710;51.120;13.136;2023-03-15T08:57:57;99235.69;;;6.77;57.10
54329;BME280;40710;51.120;13.136;2023-03-15T09:00:24;99255.41;;;6.15;58.18
54329;BME280;40710;51.120;13.136;2023-03-15T09:02:49;99243.97;;;6.42;58.35
54329;BME280;40710;51.120;13.136;2023-03-15T09:05:15;99260.00;;;6.08;57.72
54329;BME280;40710;51.120;13.136;2023-03-15T09:07:41;99248.84;;;6.28;56.06
54329;BME280;40710;51.120;13.136;2023-03-15T09:10:06;99275.16;;;5.98;58.07
54329;BME280;40710;51.120;13.136;2023-03-15T09:12:30;99264.09;;;6.39;57.71
54329;BME280;40710;51.120;13.136;2023-03-15T09:14:55;99269.56;;;5.84;58.68
54329;BME280;40710;51.120;13.136;2023-03-15T09:17:19;99277.97;;;6.17;58.17
54329;BME280;40710;51.120;13.136;2023-03-15T09:19:44;99287.75;;;6.11;58.74
54329;BME280;40710;51.120;13.136;2023-03-15T09:22:08;99276.22;;;6.63;57.59
54329;BME280;40710;51.120;13.136;2023-03-15T09:24:35;99293.28;;;5.76;60.20
54329;BME280;40710;51.120;13.136;2023-03-15T09:27:00;99297.84;;;6.20;60.04
54329;BME280;40710;51.120;13.136;2023-03-15T09:29:24;99285.25;;;6.55;58.69
54329;BME280;40710;51.120;13.136;2023-03-15T09:31:49;99296.91;;;7.14;58.26
54329;BME280;40710;51.120;13.136;2023-03-15T09:34:13;99289.47;;;7.25;57.90
54329;BME280;40710;51.120;13.136;2023-03-15T09:36:38;99295.56;;;7.04;58.93
54329;BME280;40710;51.120;13.136;2023-03-15T09:39:02;99287.19;;;7.81;56.86
54329;BME280;40710;51.120;13.136;2023-03-15T09:41:41;99297.69;;;6.94;58.34
54329;BME280;40710;51.120;13.136;2023-03-15T09:49:53;99304.78;;;7.77;57.15
54329;BME280;40710;51.120;13.136;2023-03-15T09:52:42;99309.06;;;6.93;58.51
54329;BME280;40710;51.120;13.136;2023-03-15T09:55:22;99309.34;;;7.72;57.72
54329;BME280;40710;51.120;13.136;2023-03-15T09:58:07;99309.09;;;7.13;57.38
54329;BME280;40710;51.120;13.136;2023-03-15T10:00:46;99308.19;;;6.92;58.01
54329;BME280;40710;51.120;13.136;2023-03-15T10:03:31;99309.41;;;6.84;57.42
54329;BME280;40710;51.120;13.136;2023-03-15T10:06:06;99311.31;;;7.67;55.52
54329;BME280;40710;51.120;13.136;2023-03-15T10:08:34;99308.28;;;7.97;55.99
54329;BME280;40710;51.120;13.136;2023-03-15T10:11:19;99316.56;;;7.45;56.87
54329;BME280;40710;51.120;13.136;2023-03-15T10:14:29;99298.25;;;8.06;54.42
54329;BME280;40710;51.120;13.136;2023-03-15T10:16:50;99311.19;;;7.70;55.43
54329;BME280;40710;51.120;13.136;2023-03-15T10:22:22;99319.38;;;7.40;56.43
54329;BME280;40710;51.120;13.136;2023-03-15T10:27:31;99312.81;;;7.72;54.29
54329;BME280;40710;51.120;13.136;2023-03-15T10:29:59;99315.41;;;6.63;55.90
54329;BME280;40710;51.120;13.136;2023-03-15T10:32:29;99305.22;;;7.87;53.76
54329;BME280;40710;51.120;13.136;2023-03-15T10:34:57;99317.63;;;7.82;54.55
54329;BME280;40710;51.120;13.136;2023-03-15T10:37:23;99313.47;;;7.78;55.11
54329;BME280;40710;51.120;13.136;2023-03-15T10:39:52;99315.72;;;8.26;54.25
54329;BME280;40710;51.120;13.136;2023-03-15T10:42:27;99308.22;;;7.78;53.97
54329;BME280;40710;51.120;13.136;2023-03-15T10:44:52;99329.28;;;7.10;55.57
54329;BME280;40710;51.120;13.136;2023-03-15T10:47:19;99316.03;;;7.36;55.39
54329;BME280;40710;51.120;13.136;2023-03-15T10:49:44;99316.34;;;7.71;54.01
54329;BME280;40710;51.120;13.136;2023-03-15T10:52:42;99310.66;;;7.82;52.28
54329;BME280;40710;51.120;13.136;2023-03-15T10:55:15;99300.03;;;8.06;52.44
54329;BME280;40710;51.120;13.136;2023-03-15T10:57:56;99306.50;;;8.18;52.47
54329;BME280;40710;51.120;13.136;2023-03-15T11:00:33;99303.88;;;8.76;52.82
54329;BME280;40710;51.120;13.136;2023-03-15T11:05:31;99301.75;;;8.65;51.26
54329;BME280;40710;51.120;13.136;2023-03-15T11:08:01;99311.75;;;7.56;53.97
54329;BME280;40710;51.120;13.136;2023-03-15T11:10:38;99320.00;;;7.25;54.49
54329;BME280;40710;51.120;13.136;2023-03-15T11:13:10;99319.72;;;7.53;53.46
54329;BME280;40710;51.120;13.136;2023-03-15T11:15:36;99314.44;;;7.95;53.01
54329;BME280;40710;51.120;13.136;2023-03-15T11:18:01;99320.31;;;8.01;53.49
54329;BME280;40710;51.120;13.136;2023-03-15T11:20:33;99329.56;;;7.46;54.27
54329;BME280;40710;51.120;13.136;2023-03-15T11:23:07;99329.28;;;7.54;55.69
54329;BME280;40710;51.120;13.136;2023-03-15T11:25:36;99346.66;;;6.18;57.28
54329;BME280;40710;51.120;13.136;2023-03-15T11:28:02;99332.22;;;7.24;56.95
54329;BME280;40710;51.120;13.136;2023-03-15T11:30:29;99335.16;;;7.80;54.71
54329;BME280;40710;51.120;13.136;2023-03-15T11:33:04;99315.06;;;8.80;52.71
54329;BME280;40710;51.120;13.136;2023-03-15T11:35:34;99296.63;;;10.40;48.76
54329;BME280;40710;51.120;13.136;2023-03-15T11:38:10;99303.81;;;9.51;50.60
54329;BME280;40710;51.120;13.136;2023-03-15T11:40:45;99300.44;;;10.34;49.29
54329;BME280;40710;51.120;13.136;2023-03-15T11:43:33;99276.84;;;11.89;46.28
54329;BME280;40710;51.120;13.136;2023-03-15T11:46:11;99296.03;;;9.67;49.08
54329;BME280;40710;51.120;13.136;2023-03-15T11:48:47;99291.56;;;10.85;48.63
54329;BME280;40710;51.120;13.136;2023-03-15T11:51:13;99302.78;;;10.06;49.62
54329;BME280;40710;51.120;13.136;2023-03-15T11:53:57;99278.25;;;11.04;47.62
54329;BME280;40710;51.120;13.136;2023-03-15T11:59:23;99284.97;;;9.95;48.02
54329;BME280;40710;51.120;13.136;2023-03-15T12:01:57;99261.06;;;12.61;42.79
54329;BME280;40710;51.120;13.136;2023-03-15T12:06:58;99267.72;;;11.20;43.09
54329;BME280;40710;51.120;13.136;2023-03-15T12:12:45;99263.28;;;11.36;43.05
54329;BME280;40710;51.120;13.136;2023-03-15T12:17:52;99265.69;;;9.26;41.85
54329;BME280;40710;51.120;13.136;2023-03-15T12:20:20;99242.16;;;11.97;37.62
54329;BME280;40710;51.120;13.136;2023-03-15T12:22:50;99230.38;;;12.45;35.86
54329;BME280;40710;51.120;13.136;2023-03-15T12:25:30;99229.53;;;14.05;33.79
54329;BME280;40710;51.120;13.136;2023-03-15T12:27:57;99252.69;;;11.97;37.19
54329;BME280;40710;51.120;13.136;2023-03-15T12:30:38;99241.66;;;12.89;36.08
54329;BME280;40710;51.120;13.136;2023-03-15T12:33:14;99246.81;;;11.77;37.55
54329;BME280;40710;51.120;13.136;2023-03-15T12:35:40;99257.31;;;10.86;38.83
54329;BME280;40710;51.120;13.136;2023-03-15T12:38:16;99247.59;;;12.51;38.35
54329;BME280;40710;51.120;13.136;2023-03-15T12:40:57;99243.09;;;13.08;36.79
54329;BME280;40710;51.120;13.136;2023-03-15T12:43:40;99238.00;;;13.59;35.01
54329;BME280;40710;51.120;13.136;2023-03-15T12:46:51;99224.22;;;14.18;33.82
54329;BME280;40710;51.120;13.136;2023-03-15T12:52:26;99247.72;;;13.84;34.38
54329;BME280;40710;51.120;13.136;2023-03-15T12:57:27;99264.16;;;12.67;37.02
54329;BME280;40710;51.120;13.136;2023-03-15T13:02:48;99291.75;;;11.13;39.33
54329;BME280;40710;51.120;13.136;2023-03-15T13:05:29;99287.78;;;11.67;39.42
54329;BME280;40710;51.120;13.136;2023-03-15T13:08:07;99288.59;;;11.07;39.94
54329;BME280;40710;51.120;13.136;2023-03-15T13:10:57;99285.44;;;12.21;38.67
54329;BME280;40710;51.120;13.136;2023-03-15T13:13:47;99272.97;;;13.75;35.31
54329;BME280;40710;51.120;13.136;2023-03-15T13:16:38;99300.41;;;11.15;40.90
54329;BME280;40710;51.120;13.136;2023-03-15T13:21:41;99318.69;;;11.33;41.77
54329;BME280;40710;51.120;13.136;2023-03-15T13:24:23;99324.69;;;10.89;42.67
54329;BME280;40710;51.120;13.136;2023-03-15T13:26:58;99326.13;;;10.94;42.86
54329;BME280;40710;51.120;13.136;2023-03-15T13:29:29;99338.66;;;11.21;43.15
54329;BME280;40710;51.120;13.136;2023-03-15T13:32:11;99339.91;;;10.66;43.83
54329;BME280;40710;51.120;13.136;2023-03-15T13:34:36;99338.97;;;10.67;43.84
54329;BME280;40710;51.120;13.136;2023-03-15T13:37:01;99327.09;;;11.08;42.37
54329;BME280;40710;51.120;13.136;2023-03-15T13:39:28;99328.81;;;10.61;42.55